Terminal Aerodrome Forecast
Issued by NWS Medford, OR

Home | Current Version | Previous Version | Text Only | Print | Product List | Glossary On
Versions: 1 2 3 4 5 6 7 8 9 10 11 12 13 14 15 16
000
FTUS46 KMFR 231324 AAA
TAFMFR
TAF AMD
KMFR 231324Z 2313/2412 00000KT 1/2SM FZFG OVC003
     FM231500 VRB03KT 4SM BR OVC008
     FM231700 VRB03KT P6SM SCT010 BKN050
     FM241000 00000KT 1/2SM FZFG OVC002=

USA.gov is the U.S. government's official web portal to all federal, state and local government web resources and services.